Kezdőlap
METAR-TAF:

METAR-TAF

Repülőterek :

Fourchambault

Nevers, Franciaország

földrajzi szélesség: 47-00N, földrajzi hosszúság: 003-06E, magasság: 180 m

Jelenlegi meteorológiai megfigyelések

A jelentés 36 perccel ezelõtt készült, 08:30 UTC
Dél-délkeleti szél 15 kt
Hőmérséklet 4°C
Páratartalom 93%
Légköri nyomás 1002 hPa
Látótávolság 10 km, vagy több
enyhe esõ

METAR: LFQG 270830Z AUTO 15015KT 9999 -RA FEW018/// SCT026/// BKN032/// ///TCU 04/03 Q1002

Idő: 10:06 (09:06 UTC)


TAF: hiányzik

Meteorológiai megfigyelések és előrejelzések több, mint 4000 repülőtéren (METAR és TAF jelentéseket).

A térképen piros és sárga pontok jelzik az elérhető meteorológiai állomásokat.

Mozgassa az egeret a pont fölött, hogy megjelenjen az állomás neve.

Azután kattintson az időjárási megfigyelések és előrejelzések megtekintéséhez.

A térkép megváltoztatása: kattintson a fekete keresztel jelölt zöld gombra ráközelítéshez, a vonallal jelölt zöld gombra távolításhoz, vagy a zöld nyilakra a szomszédos térképek eléréséhez.


METAR-TAF: